createdAt,value
2023-02-06T00:02:02.213Z,103566.91
2023-02-06T00:07:04.078Z,103558.09
2023-02-06T00:12:06.235Z,103551.06
2023-02-06T00:17:08.227Z,103547.47
2023-02-06T00:22:10.858Z,103536.00
2023-02-06T00:27:12.881Z,103542.22
2023-02-06T00:32:14.892Z,103543.94
2023-02-06T00:37:17.720Z,103536.88
2023-02-06T00:42:19.590Z,103534.25
2023-02-06T00:47:21.571Z,103539.53
2023-02-06T00:52:23.511Z,103550.13
2023-02-06T00:57:25.455Z,103552.75
2023-02-06T01:02:27.505Z,103556.25
2023-02-06T01:07:29.743Z,103545.69
2023-02-06T01:12:31.676Z,103543.91
2023-02-06T01:17:34.496Z,103537.75
2023-02-06T01:22:37.035Z,103550.97
2023-02-06T01:27:39.618Z,103543.91
2023-02-06T01:32:42.343Z,103541.25
2023-02-06T01:37:44.565Z,103541.25
2023-02-06T01:42:46.629Z,103549.22
2023-02-06T01:47:50.183Z,103553.66
2023-02-06T01:52:52.375Z,103557.19
2023-02-06T01:57:54.478Z,103565.97
2023-02-06T02:02:56.585Z,103570.41
2023-02-06T02:08:04.803Z,103578.34
2023-02-06T02:13:06.600Z,103567.75
2023-02-06T02:18:27.130Z,103572.16
2023-02-06T02:24:07.083Z,103565.97
2023-02-06T02:29:30.609Z,103568.59
2023-02-06T02:34:50.876Z,103565.94
2023-02-06T02:40:16.396Z,103573.91
2023-02-06T02:45:29.195Z,103573.00
2023-02-06T02:50:32.530Z,103566.84
2023-02-06T02:55:35.293Z,103569.47
2023-02-06T03:00:44.311Z,103551.81
2023-02-06T03:06:00.874Z,103545.66
2023-02-06T03:11:18.469Z,103539.44
2023-02-06T03:16:25.792Z,103546.53
2023-02-06T03:21:29.690Z,103548.28
2023-02-06T03:26:33.295Z,103549.16
2023-02-06T03:31:55.822Z,103541.16
2023-02-06T03:36:57.749Z,103550.03
2023-02-06T03:42:01.667Z,103549.13
2023-02-06T03:47:06.375Z,103556.22
2023-02-06T03:52:13.770Z,103548.25
2023-02-06T03:57:19.665Z,103541.19
2023-02-06T04:02:23.609Z,103548.28
2023-02-06T04:07:28.150Z,103545.63
2023-02-06T04:12:29.980Z,103565.91
2023-02-06T04:17:49.646Z,103558.88
2023-02-06T04:22:54.014Z,103547.38
2023-02-06T04:27:56.122Z,103558.88
2023-02-06T04:32:58.385Z,103547.38
2023-02-06T04:38:00.502Z,103534.09
2023-02-06T04:43:02.406Z,103542.09
2023-02-06T04:48:04.582Z,103539.41
2023-02-06T04:53:06.473Z,103550.91
2023-02-06T04:58:08.685Z,103550.91
2023-02-06T05:03:10.728Z,103540.34
2023-02-06T05:08:12.520Z,103549.13
2023-02-06T05:13:14.601Z,103547.38
2023-02-06T05:18:16.816Z,103552.69
2023-02-06T05:23:18.749Z,103554.44
2023-02-06T05:28:20.805Z,103565.91
2023-02-06T05:33:23.306Z,103577.41
2023-02-06T05:38:25.249Z,103572.97
2023-02-06T05:43:27.707Z,103578.25
2023-02-06T05:48:30.899Z,103571.22
2023-02-06T05:53:33.017Z,103570.25
2023-02-06T05:58:35.201Z,103585.34
2023-02-06T06:03:38.778Z,103590.59
2023-02-06T06:08:40.946Z,103574.72
2023-02-06T06:13:42.900Z,103562.34
2023-02-06T06:18:44.685Z,103563.25
2023-02-06T06:23:46.572Z,103561.47
2023-02-06T06:28:48.794Z,103561.47
2023-02-06T06:33:50.808Z,103568.53
2023-02-06T06:38:53.061Z,103564.94
2023-02-06T06:43:56.911Z,103558.78
2023-02-06T06:48:58.984Z,103553.56
2023-02-06T06:54:00.786Z,103559.72
2023-02-06T06:59:02.889Z,103554.34
2023-02-06T07:04:05.213Z,103564.94
2023-02-06T07:09:07.125Z,103566.78
2023-02-06T07:14:09.267Z,103552.59
2023-02-06T07:19:11.351Z,103541.16
2023-02-06T07:24:13.149Z,103541.06
2023-02-06T07:29:15.005Z,103534.06
2023-02-06T07:34:17.162Z,103530.63
2023-02-06T07:39:19.137Z,103536.78
2023-02-06T07:44:21.068Z,103517.25
2023-02-06T07:49:23.182Z,103521.78
2023-02-06T07:54:25.033Z,103522.78
2023-02-06T07:59:26.909Z,103524.56
2023-02-06T08:04:35.414Z,103536.97
2023-02-06T08:09:37.453Z,103533.41
2023-02-06T08:14:39.199Z,103516.66
2023-02-06T08:19:41.373Z,103519.31
2023-02-06T08:24:43.247Z,103531.66
2023-02-06T08:29:45.535Z,103520.16
2023-02-06T08:34:47.416Z,103521.91
2023-02-06T08:39:49.198Z,103515.75
2023-02-06T08:44:52.711Z,103525.44
2023-02-06T08:49:54.981Z,103516.63
2023-02-06T08:54:56.819Z,103512.25
2023-02-06T08:59:58.904Z,103512.19
2023-02-06T09:05:00.761Z,103510.50
2023-02-06T09:10:02.680Z,103506.03
2023-02-06T09:15:05.573Z,103515.72
2023-02-06T09:20:08.061Z,103518.38
2023-02-06T09:25:10.585Z,103521.06
2023-02-06T09:30:14.961Z,103509.53
2023-02-06T09:35:17.077Z,103506.00
2023-02-06T09:40:25.088Z,103511.31
2023-02-06T09:45:30.280Z,103515.75
2023-02-06T09:50:48.329Z,103514.88
2023-02-06T09:55:58.736Z,103517.53
2023-02-06T10:01:27.449Z,103516.63
2023-02-06T10:06:45.433Z,103530.78
2023-02-06T10:11:58.724Z,103523.72
2023-02-06T10:17:04.367Z,103538.72
2023-02-06T10:22:21.440Z,103529.88
2023-02-06T10:27:23.262Z,103538.72
2023-02-06T10:33:03.321Z,103539.56
2023-02-06T10:38:39.058Z,103537.84
2023-02-06T10:44:04.612Z,103529.88
2023-02-06T10:49:22.147Z,103536.97
2023-02-06T10:54:31.581Z,103523.69
2023-02-06T10:59:38.405Z,103514.88
2023-02-06T11:04:45.349Z,103511.34
2023-02-06T11:09:47.286Z,103512.22
2023-02-06T11:14:51.024Z,103508.69
2023-02-06T11:19:53.841Z,103507.81
2023-02-06T11:25:08.221Z,103495.44
2023-02-06T11:30:33.754Z,103486.63
2023-02-06T11:35:47.652Z,103483.97
2023-02-06T11:41:02.432Z,103476.91
2023-02-06T11:46:19.446Z,103480.41
2023-02-06T11:51:22.755Z,103468.94
2023-02-06T11:56:25.362Z,103452.19
2023-02-06T12:01:27.337Z,103450.38
2023-02-06T12:06:38.712Z,103433.63
2023-02-06T12:11:53.908Z,103431.81
2023-02-06T12:16:56.771Z,103430.09
2023-02-06T12:22:04.523Z,103413.31
2023-02-06T12:27:17.170Z,103413.28
2023-02-06T12:32:29.735Z,103421.22
2023-02-06T12:37:43.003Z,103426.53
2023-02-06T12:42:54.928Z,103430.06
2023-02-06T12:48:05.075Z,103436.25
2023-02-06T12:53:26.559Z,103438.91
2023-02-06T12:58:37.065Z,103427.44
2023-02-06T13:04:04.976Z,103418.59
2023-02-06T13:09:08.330Z,103410.66
2023-02-06T13:14:20.803Z,103406.22
2023-02-06T13:19:51.866Z,103412.41
2023-02-06T13:24:57.602Z,103400.06
2023-02-06T13:30:17.878Z,103392.09
2023-02-06T13:35:24.377Z,103371.78
2023-02-06T13:40:26.943Z,103367.34
2023-02-06T13:45:52.965Z,103364.69
2023-02-06T13:51:17.335Z,103371.75
2023-02-06T13:56:38.680Z,103360.25
2023-02-06T14:01:40.852Z,103370.78
2023-02-06T14:06:45.864Z,103357.56
2023-02-06T14:12:18.995Z,103361.13
2023-02-06T14:17:47.618Z,103362.94
2023-02-06T14:23:03.281Z,103353.22
2023-02-06T14:28:24.098Z,103349.69
2023-02-06T14:33:44.849Z,103352.31
2023-02-06T14:39:03.761Z,103354.09
2023-02-06T14:44:19.504Z,103360.28
2023-02-06T14:49:30.121Z,103359.41
2023-02-06T14:54:39.112Z,103353.25
2023-02-06T14:59:54.246Z,103371.72
2023-02-06T15:04:57.591Z,103364.72
2023-02-06T15:10:10.303Z,103359.44
2023-02-06T15:15:26.664Z,103357.66
2023-02-06T15:20:43.515Z,103355.00
2023-02-06T15:25:54.245Z,103353.22
2023-02-06T15:30:59.223Z,103348.81
2023-02-06T15:36:03.883Z,103342.56
2023-02-06T15:41:08.737Z,103338.19
2023-02-06T15:46:10.962Z,103346.13
2023-02-06T15:51:30.533Z,103342.59
2023-02-06T15:56:35.562Z,103353.22
2023-02-06T16:01:41.711Z,103355.84
2023-02-06T16:06:44.602Z,103342.63
2023-02-06T16:11:52.113Z,103342.63
2023-02-06T16:17:00.040Z,103332.00
2023-02-06T16:22:14.641Z,103328.50
2023-02-06T16:27:21.040Z,103312.56
2023-02-06T16:32:31.657Z,103318.75
2023-02-06T16:37:33.506Z,103308.13
2023-02-06T16:42:38.105Z,103313.47
2023-02-06T16:47:40.160Z,103309.06
2023-02-06T16:52:47.702Z,103305.53
2023-02-06T16:57:53.088Z,103302.88
2023-02-06T17:02:55.458Z,103307.25
2023-02-06T17:07:57.376Z,103309.88
2023-02-06T17:12:59.404Z,103312.56
2023-02-06T17:18:01.420Z,103314.31
2023-02-06T17:23:04.128Z,103314.31
2023-02-06T17:28:08.006Z,103314.31
2023-02-06T17:33:09.884Z,103316.09
2023-02-06T17:38:12.528Z,103303.75
2023-02-06T17:43:15.539Z,103319.63
2023-02-06T17:48:17.500Z,103317.84
2023-02-06T17:53:19.493Z,103316.09
2023-02-06T17:58:21.578Z,103305.50
2023-02-06T18:03:23.486Z,103302.88
2023-02-06T18:08:25.520Z,103282.53
2023-02-06T18:13:28.947Z,103298.44
2023-02-06T18:18:31.534Z,103289.59
2023-02-06T18:23:33.540Z,103295.78
2023-02-06T18:28:37.453Z,103294.00
2023-02-06T18:33:39.259Z,103294.00
2023-02-06T18:38:41.244Z,103299.28
2023-02-06T18:43:43.398Z,103294.88
2023-02-06T18:48:45.248Z,103308.13
2023-02-06T18:53:47.373Z,103301.06
2023-02-06T18:58:49.522Z,103305.50
2023-02-06T19:03:52.958Z,103313.44
2023-02-06T19:08:54.882Z,103309.03
2023-02-06T19:13:57.064Z,103293.16
2023-02-06T19:18:59.344Z,103291.38
2023-02-06T19:24:01.366Z,103289.56
2023-02-06T19:29:03.380Z,103294.91
2023-02-06T19:34:05.381Z,103291.38
2023-02-06T19:39:09.895Z,103293.13
2023-02-06T19:44:13.813Z,103286.97
2023-02-06T19:49:15.828Z,103286.06
2023-02-06T19:54:18.289Z,103275.47
2023-02-06T19:59:22.898Z,103289.59
2023-02-06T20:04:28.224Z,103282.50
2023-02-06T20:09:30.991Z,103290.47
2023-02-06T20:14:32.876Z,103291.34
2023-02-06T20:19:34.750Z,103296.63
2023-02-06T20:24:36.735Z,103291.34
2023-02-06T20:29:40.339Z,103284.28
2023-02-06T20:34:42.681Z,103286.06
2023-02-06T20:39:44.685Z,103297.53
2023-02-06T20:44:46.977Z,103294.91
2023-02-06T20:49:48.921Z,103294.91
2023-02-06T20:54:50.865Z,103295.81
2023-02-06T20:59:52.811Z,103286.06
2023-02-06T21:04:55.682Z,103277.22
2023-02-06T21:09:57.785Z,103265.72
2023-02-06T21:14:59.670Z,103257.78
2023-02-06T21:20:01.565Z,103266.63
2023-02-06T21:25:04.422Z,103262.22
2023-02-06T21:30:06.953Z,103252.47
2023-02-06T21:35:10.677Z,103249.84
2023-02-06T21:40:12.525Z,103243.63
2023-02-06T21:45:14.599Z,103250.72
2023-02-06T21:50:16.559Z,103250.72
2023-02-06T21:55:18.551Z,103236.56
2023-02-06T22:00:20.579Z,103241.00
2023-02-06T22:05:22.962Z,103236.56
2023-02-06T22:10:25.184Z,103244.53
2023-02-06T22:15:27.155Z,103239.25
2023-02-06T22:20:29.134Z,103234.81
2023-02-06T22:25:31.289Z,103239.22
2023-02-06T22:30:33.247Z,103234.75
2023-02-06T22:35:39.902Z,103234.78
2023-02-06T22:40:41.791Z,103245.41
2023-02-06T22:45:43.747Z,103250.72
2023-02-06T22:50:45.617Z,103250.72
2023-02-06T22:56:06.053Z,103243.66
2023-02-06T23:01:07.965Z,103240.13
2023-02-06T23:06:12.046Z,103248.06
2023-02-06T23:11:14.748Z,103248.97
2023-02-06T23:16:17.035Z,103252.47
2023-02-06T23:21:21.359Z,103257.81
2023-02-06T23:26:23.350Z,103261.31
2023-02-06T23:31:27.196Z,103259.56
2023-02-06T23:36:29.886Z,103253.38
2023-02-06T23:41:32.818Z,103249.84
2023-02-06T23:46:36.573Z,103257.78
2023-02-06T23:51:38.882Z,103255.13
2023-02-06T23:56:41.266Z,103245.44
